Time;durP1;ratioP1;P1;durP2;ratioP2;P2;SDS_P1;SDS_P2;PMS_P1;PMS_P2;Temp;Humidity;BMP_temperature;BMP_pressure;BME280_temperature;BME280_humidity;BME280_pressure;Samples;Min_cycle;Max_cycle;Signal;HPM_P1;HPM_P2
2023/03/04 00:00:52;;;;;;;36.80;12.70;;;;;;;2.64;100.00;101299.19;4995036;28;20833;-66
2023/03/04 00:03:19;;;;;;;32.57;11.60;;;;;;;2.66;99.82;101305.16;4995169;28;20531;-66
2023/03/04 00:05:46;;;;;;;34.37;12.60;;;;;;;2.68;99.55;101311.06;4995084;28;20451;-66
2023/03/04 00:08:12;;;;;;;32.07;11.87;;;;;;;2.60;100.00;101313.25;4995043;28;20453;-67
2023/03/04 00:10:39;;;;;;;28.23;12.37;;;;;;;2.68;100.00;101307.59;4994861;28;20493;-66
2023/03/04 00:13:07;;;;;;;29.67;13.07;;;;;;;2.73;100.00;101303.16;4994974;28;20448;-65
2023/03/04 00:15:33;;;;;;;25.67;10.60;;;;;;;2.73;100.00;101302.34;4994960;28;20449;-66
2023/03/04 00:18:00;;;;;;;36.30;12.67;;;;;;;2.82;99.85;101294.81;4994579;28;20945;-66
2023/03/04 00:20:26;;;;;;;37.30;11.90;;;;;;;2.85;99.43;101297.03;4994742;28;20465;-65
2023/03/04 00:22:53;;;;;;;28.60;13.20;;;;;;;2.84;99.56;101296.22;4994756;28;20448;-66
2023/03/04 00:25:20;;;;;;;36.60;12.83;;;;;;;2.93;99.43;101285.97;4994387;28;20958;-66
2023/03/04 00:27:47;;;;;;;39.97;11.50;;;;;;;3.01;98.59;101288.28;4994747;28;20544;-67
2023/03/04 00:30:15;;;;;;;27.87;11.37;;;;;;;2.92;98.70;101295.03;4994191;28;20994;-67
2023/03/04 00:32:42;;;;;;;32.07;12.03;;;;;;;2.86;99.77;101286.09;4994590;28;20441;-68
2023/03/04 00:35:09;;;;;;;25.53;10.80;;;;;;;2.93;98.96;101286.78;4994614;28;20477;-67
2023/03/04 00:37:35;;;;;;;29.73;11.70;;;;;;;3.03;98.65;101291.56;4994182;28;20531;-67
2023/03/04 00:40:02;;;;;;;31.93;8.23;;;;;;;3.07;98.44;101286.56;4994405;28;20464;-66
2023/03/04 00:42:28;;;;;;;26.83;10.87;;;;;;;3.16;98.00;101285.97;4994260;28;20455;-66
2023/03/04 00:44:55;;;;;;;33.37;11.33;;;;;;;3.18;97.83;101278.50;4994373;28;20451;-67
2023/03/04 00:47:23;;;;;;;39.70;11.40;;;;;;;3.17;97.78;101282.22;4994153;28;20452;-66
2023/03/04 00:49:49;;;;;;;21.00;7.33;;;;;;;3.22;97.49;101276.16;4993910;28;20579;-67
2023/03/04 00:52:16;;;;;;;31.93;10.70;;;;;;;3.29;96.97;101282.22;4993920;28;20820;-68
2023/03/04 00:54:42;;;;;;;23.33;8.93;;;;;;;3.37;96.68;101281.88;4994237;28;20441;-66
2023/03/04 00:57:09;;;;;;;29.37;7.70;;;;;;;3.39;96.59;101277.06;4994178;28;20445;-67
2023/03/04 00:59:36;;;;;;;27.47;9.17;;;;;;;3.45;96.28;101278.81;4993829;28;20495;-66
2023/03/04 01:02:02;;;;;;;29.57;7.50;;;;;;;3.45;96.07;101276.16;4994079;28;20449;-66
2023/03/04 01:04:30;;;;;;;19.60;7.27;;;;;;;3.54;95.55;101265.84;4994066;28;20481;-67
2023/03/04 01:06:57;;;;;;;24.50;6.67;;;;;;;3.56;95.38;101263.78;4994149;28;20516;-67
2023/03/04 01:09:25;;;;;;;14.33;5.43;;;;;;;3.57;95.47;101267.25;4995289;28;20604;-67
2023/03/04 01:11:52;;;;;;;20.40;7.60;;;;;;;3.61;95.20;101268.41;4993707;28;20855;-66
2023/03/04 01:14:18;;;;;;;17.37;7.37;;;;;;;3.51;95.32;101261.81;4993911;28;20445;-67
2023/03/04 01:16:45;;;;;;;25.50;7.53;;;;;;;3.46;96.19;101258.22;4994077;28;20440;-67
2023/03/04 01:19:12;;;;;;;22.00;6.47;;;;;;;3.50;95.97;101260.19;4993767;28;20821;-68
2023/03/04 01:21:40;;;;;;;34.37;5.67;;;;;;;3.54;96.09;101260.50;4993824;28;20480;-67
2023/03/04 01:24:06;;;;;;;21.50;5.93;;;;;;;3.58;95.87;101255.47;4993804;28;20544;-67
2023/03/04 01:26:33;;;;;;;13.33;6.00;;;;;;;3.62;95.54;101254.78;4993787;28;20454;-67
2023/03/04 01:29:00;;;;;;;12.33;5.53;;;;;;;3.62;95.48;101256.63;4993896;28;20448;-68
2023/03/04 01:31:27;;;;;;;15.17;5.57;;;;;;;3.75;95.01;101241.09;4993777;28;20499;-68
2023/03/04 01:33:53;;;;;;;17.53;6.23;;;;;;;3.66;95.15;101236.38;4993772;28;20544;-68
2023/03/04 01:36:20;;;;;;;26.20;7.13;;;;;;;3.71;95.14;101231.09;4993722;28;20527;-68
2023/03/04 01:38:48;;;;;;;26.33;5.83;;;;;;;3.71;95.48;101226.56;4993665;28;20452;-67
2023/03/04 01:41:17;;;;;;;19.90;5.67;;;;;;;3.79;95.08;101233.41;4993810;28;20499;-67
2023/03/04 01:43:44;;;;;;;20.97;5.83;;;;;;;3.82;94.93;101229.44;4993713;28;20445;-68
2023/03/04 01:46:13;;;;;;;16.57;4.30;;;;;;;3.82;95.31;101218.72;4993369;28;20444;-68
2023/03/04 01:48:41;;;;;;;20.23;5.53;;;;;;;3.92;94.58;101227.75;4993683;28;20535;-67
2023/03/04 01:51:13;;;;;;;14.90;5.30;;;;;;;3.94;94.37;101216.78;4993527;28;20571;-68
2023/03/04 01:53:40;;;;;;;16.10;5.00;;;;;;;3.99;94.50;101215.03;4995310;28;20433;-68
2023/03/04 01:56:16;;;;;;;16.70;5.90;;;;;;;4.00;94.50;101207.78;4997539;28;20444;-69
2023/03/04 01:58:43;;;;;;;14.73;4.60;;;;;;;4.07;94.14;101213.78;4997555;28;20437;-67
2023/03/04 02:01:11;;;;;;;25.30;4.57;;;;;;;4.01;94.52;101201.38;4997370;28;20471;-69
2023/03/04 02:03:38;;;;;;;12.40;4.47;;;;;;;4.04;94.59;101206.25;4997444;28;20451;-66
2023/03/04 02:06:05;;;;;;;14.10;3.90;;;;;;;4.08;94.66;101204.72;4997050;28;20449;-66
2023/03/04 02:08:31;;;;;;;31.90;6.40;;;;;;;4.09;94.82;101203.66;4997320;28;20449;-66
2023/03/04 02:10:58;;;;;;;17.30;4.47;;;;;;;4.18;94.46;101207.56;4996855;28;20520;-66
2023/03/04 02:13:26;;;;;;;14.53;4.77;;;;;;;4.21;94.72;101203.59;4997457;28;20491;-66
2023/03/04 02:15:52;;;;;;;14.80;4.43;;;;;;;4.21;94.69;101193.69;4997195;28;20816;-66
2023/03/04 02:18:21;;;;;;;18.30;4.20;;;;;;;4.23;94.87;101191.56;4997345;28;20455;-66
2023/03/04 02:20:56;;;;;;;10.67;3.90;;;;;;;4.20;94.97;101194.72;4997054;28;20589;-66
2023/03/04 02:23:30;;;;;;;17.47;4.20;;;;;;;4.28;94.81;101191.63;4997046;28;20456;-67
2023/03/04 02:26:18;;;;;;;14.27;3.90;;;;;;;4.36;94.41;101178.88;4996751;28;20920;-66
2023/03/04 02:28:46;;;;;;;12.20;3.30;;;;;;;4.40;94.43;101185.38;4997259;28;20480;-66
2023/03/04 02:31:24;;;;;;;13.97;3.17;;;;;;;4.40;94.37;101178.16;4996717;28;20575;-66
2023/03/04 02:33:51;;;;;;;12.30;3.47;;;;;;;4.43;94.48;101176.84;4996880;28;20429;-66
2023/03/04 02:36:18;;;;;;;11.50;3.93;;;;;;;4.50;93.81;101172.13;4996908;28;20785;-67
2023/03/04 02:38:45;;;;;;;11.40;3.50;;;;;;;4.48;93.88;101168.88;4996735;28;20476;-66
2023/03/04 02:41:13;;;;;;;12.60;3.60;;;;;;;4.43;94.51;101172.28;4996652;28;20463;-65
2023/03/04 02:43:41;;;;;;;8.80;3.80;;;;;;;4.43;94.42;101168.81;4996662;28;20444;-67
2023/03/04 02:46:12;;;;;;;15.33;3.30;;;;;;;4.50;94.14;101159.50;4996612;28;20543;-66
2023/03/04 02:48:38;;;;;;;15.33;3.43;;;;;;;4.46;94.57;101154.88;4996320;28;20886;-66
2023/03/04 02:51:06;;;;;;;19.17;4.13;;;;;;;4.45;95.07;101161.31;4996071;28;20498;-66
2023/03/04 02:53:32;;;;;;;13.67;3.43;;;;;;;4.50;94.94;101153.34;4996126;28;20969;-67
2023/03/04 02:55:59;;;;;;;9.87;3.40;;;;;;;4.52;94.63;101157.41;4996464;28;20451;-66
2023/03/04 02:58:25;;;;;;;14.77;3.60;;;;;;;4.58;94.16;101152.91;4996326;28;20440;-67
2023/03/04 03:00:53;;;;;;;14.63;3.73;;;;;;;4.56;94.58;101160.41;4996165;28;20471;-67
2023/03/04 03:03:20;;;;;;;14.50;3.73;;;;;;;4.60;94.56;101149.97;4996111;28;20437;-66
2023/03/04 03:05:47;;;;;;;14.73;2.77;;;;;;;4.61;94.60;101160.47;4995028;28;20547;-66
2023/03/04 03:08:13;;;;;;;12.37;3.63;;;;;;;4.62;94.75;101151.38;4996230;28;20451;-66
2023/03/04 03:10:40;;;;;;;11.53;3.40;;;;;;;4.62;94.67;101148.69;4996021;28;20484;-67
2023/03/04 03:13:06;;;;;;;11.70;2.77;;;;;;;4.63;94.99;101154.84;4995938;28;20448;-66
2023/03/04 03:15:33;;;;;;;10.03;3.50;;;;;;;4.56;95.53;101152.38;4995983;28;20964;-66
2023/03/04 03:18:01;;;;;;;13.13;3.60;;;;;;;4.56;95.53;101152.38;4995973;28;20535;-66
2023/03/04 03:20:27;;;;;;;10.87;2.80;;;;;;;4.55;95.92;101142.66;4995853;28;20467;-66
2023/03/04 03:22:54;;;;;;;12.70;4.00;;;;;;;4.56;96.19;101141.63;4995934;28;20445;-66
2023/03/04 03:25:21;;;;;;;8.40;3.13;;;;;;;4.62;96.11;101137.97;4995879;28;20449;-66
2023/03/04 03:27:47;;;;;;;14.73;2.70;;;;;;;4.60;96.08;101134.69;4995501;28;20440;-66
2023/03/04 03:30:15;;;;;;;19.90;3.40;;;;;;;4.63;96.12;101134.22;4995624;28;20496;-66
2023/03/04 03:32:42;;;;;;;8.70;2.83;;;;;;;4.59;96.87;101122.34;4995904;28;20495;-66
2023/03/04 03:35:10;;;;;;;9.57;2.57;;;;;;;4.55;97.15;101131.94;4995387;28;20508;-66
2023/03/04 03:37:36;;;;;;;9.87;2.57;;;;;;;4.58;96.94;101115.38;4995630;28;20531;-66
2023/03/04 03:40:04;;;;;;;12.73;3.17;;;;;;;4.65;96.94;101115.16;4995540;28;20543;-66
2023/03/04 03:42:31;;;;;;;8.97;2.70;;;;;;;4.65;97.06;101126.75;4995564;28;20484;-65
2023/03/04 03:44:57;;;;;;;9.27;2.70;;;;;;;4.72;96.53;101118.50;4995239;28;20536;-66
2023/03/04 03:47:24;;;;;;;10.60;2.47;;;;;;;4.71;96.64;101116.88;4995096;28;20447;-66
2023/03/04 03:49:50;;;;;;;20.07;3.60;;;;;;;4.74;96.75;101114.50;4995234;28;20813;-66
2023/03/04 03:52:18;;;;;;;8.07;2.70;;;;;;;4.70;97.16;101124.13;4995379;28;20441;-67
2023/03/04 03:54:45;;;;;;;12.43;3.30;;;;;;;4.65;97.63;101116.00;4995343;28;20444;-66
2023/03/04 03:57:11;;;;;;;15.53;3.40;;;;;;;4.64;97.64;101106.31;4995027;28;20527;-66
2023/03/04 03:59:38;;;;;;;12.40;2.40;;;;;;;4.78;97.25;101112.97;4994696;28;20976;-66
2023/03/04 04:02:05;;;;;;;13.30;3.57;;;;;;;4.86;96.56;101111.69;4995353;28;20441;-66
2023/03/04 04:04:31;;;;;;;10.00;2.90;;;;;;;4.89;96.31;101110.38;4995267;28;20449;-66
2023/03/04 04:06:59;;;;;;;13.07;2.67;;;;;;;4.84;96.95;101104.97;4995188;28;20441;-67
2023/03/04 04:09:27;;;;;;;9.57;2.20;;;;;;;4.85;96.78;101103.91;4994688;28;20978;-67
2023/03/04 04:11:54;;;;;;;12.27;2.73;;;;;;;4.92;96.28;101109.91;4994998;28;20496;-67
2023/03/04 04:14:20;;;;;;;17.20;2.53;;;;;;;4.96;96.06;101103.78;4994666;28;20491;-66
2023/03/04 04:16:47;;;;;;;6.37;1.70;;;;;;;4.93;96.19;101106.16;4994599;28;20524;-66
2023/03/04 04:19:17;;;;;;;14.50;1.97;;;;;;;4.96;96.51;101100.28;4994942;28;20481;-66
2023/03/04 04:21:45;;;;;;;7.90;2.67;;;;;;;5.02;95.97;101097.41;4994877;28;20436;-66
2023/03/04 04:24:11;;;;;;;10.53;2.03;;;;;;;5.03;95.94;101098.19;4994747;28;20830;-66
2023/03/04 04:26:39;;;;;;;12.67;1.90;;;;;;;5.03;95.93;101106.25;4994470;28;20448;-65
2023/03/04 04:29:06;;;;;;;7.60;2.10;;;;;;;5.06;95.78;101101.19;4994677;28;20529;-65
2023/03/04 04:31:33;;;;;;;18.37;2.37;;;;;;;5.10;95.82;101096.16;4994307;28;20531;-66
2023/03/04 04:33:59;;;;;;;7.70;2.30;;;;;;;5.07;96.03;101097.44;4994839;28;20452;-66
2023/03/04 04:36:26;;;;;;;12.87;2.00;;;;;;;5.14;95.88;101093.78;4994221;28;20895;-66
2023/03/04 04:38:53;;;;;;;8.40;1.43;;;;;;;5.13;95.68;101084.88;4994212;28;20443;-66
2023/03/04 04:41:22;;;;;;;7.33;1.90;;;;;;;5.16;95.56;101089.75;4994481;28;20531;-66
2023/03/04 04:43:50;;;;;;;12.77;2.90;;;;;;;5.17;95.47;101088.69;4994411;28;20485;-66
2023/03/04 04:46:17;;;;;;;13.50;2.27;;;;;;;5.17;95.47;101082.50;4994152;28;20938;-65
2023/03/04 04:48:44;;;;;;;9.27;2.10;;;;;;;5.19;95.32;101077.72;4994374;28;20455;-66
2023/03/04 04:51:10;;;;;;;15.17;1.90;;;;;;;5.12;95.66;101083.25;4994186;28;20492;-66
2023/03/04 04:53:37;;;;;;;8.93;1.80;;;;;;;5.19;95.49;101078.53;4994061;28;20536;-66
2023/03/04 04:56:09;;;;;;;12.23;2.17;;;;;;;5.18;95.41;101076.91;4993916;28;20964;-66
2023/03/04 04:58:36;;;;;;;12.83;2.60;;;;;;;5.18;95.14;101071.53;4994185;28;20480;-66
2023/03/04 05:01:05;;;;;;;16.70;1.77;;;;;;;5.21;94.94;101079.06;4993960;28;20511;-68
2023/03/04 05:03:32;;;;;;;6.47;1.90;;;;;;;5.18;95.56;101076.06;4994054;28;20441;-66
2023/03/04 05:05:58;;;;;;;19.90;2.50;;;;;;;5.24;95.00;101073.19;4994078;28;20487;-66
2023/03/04 05:08:25;;;;;;;11.83;2.63;;;;;;;5.23;95.07;101073.47;4993758;28;20814;-66
2023/03/04 05:10:52;;;;;;;6.90;2.23;;;;;;;5.30;94.95;101072.16;4993849;28;20492;-66
2023/03/04 05:13:19;;;;;;;8.23;1.97;;;;;;;5.26;95.32;101072.94;4993621;28;20938;-68
2023/03/04 05:15:45;;;;;;;5.63;1.40;;;;;;;5.17;95.70;101071.75;4993902;28;20445;-66
2023/03/04 05:18:13;;;;;;;10.13;2.57;;;;;;;5.20;95.45;101074.75;4993917;28;20456;-67
2023/03/04 05:20:40;;;;;;;13.23;2.10;;;;;;;5.28;95.17;101076.19;4993751;28;20461;-66
2023/03/04 05:23:07;;;;;;;7.77;1.87;;;;;;;5.34;94.94;101074.34;4993916;28;20536;-68
2023/03/04 05:25:33;;;;;;;9.93;2.80;;;;;;;5.31;95.20;101076.50;4993483;28;20972;-67
2023/03/04 05:28:00;;;;;;;10.30;2.40;;;;;;;5.34;95.00;101074.34;4993093;28;20472;-67
2023/03/04 05:30:27;;;;;;;12.80;2.10;;;;;;;5.31;95.23;101076.50;4993563;28;20495;-66
2023/03/04 05:32:54;;;;;;;7.17;2.10;;;;;;;5.35;95.21;101073.28;4993816;28;20536;-67
2023/03/04 05:35:22;;;;;;;8.10;2.20;;;;;;;5.35;95.17;101071.41;4993350;28;20952;-65
2023/03/04 05:37:48;;;;;;;7.13;1.50;;;;;;;5.31;95.44;101071.13;4993754;28;20533;-66
2023/03/04 05:40:15;;;;;;;5.90;1.20;;;;;;;5.24;95.80;101070.50;4993603;28;20465;-66
2023/03/04 05:42:41;;;;;;;5.43;1.40;;;;;;;5.19;96.45;101061.59;4993593;28;20813;-66
2023/03/04 05:45:09;;;;;;;10.87;1.70;;;;;;;5.15;97.18;101072.03;4993588;28;20879;-65
2023/03/04 05:47:35;;;;;;;8.47;1.60;;;;;;;5.16;97.30;101070.97;4993652;28;20445;-66
2023/03/04 05:50:02;;;;;;;7.13;1.73;;;;;;;5.27;96.92;101074.56;4993246;28;21017;-66
2023/03/04 05:52:30;;;;;;;5.63;1.50;;;;;;;5.24;96.91;101069.72;4993520;28;20487;-65
2023/03/04 05:54:56;;;;;;;11.20;1.80;;;;;;;5.21;97.11;101057.59;4993506;28;20467;-66
2023/03/04 05:57:23;;;;;;;7.03;1.67;;;;;;;5.20;97.42;101058.66;4993566;28;20453;-66
2023/03/04 05:59:49;;;;;;;7.23;1.50;;;;;;;5.13;98.20;101060.72;4993295;28;20480;-66
2023/03/04 06:02:16;;;;;;;5.97;2.00;;;;;;;5.14;98.48;101059.69;4993418;28;20441;-66
2023/03/04 06:04:42;;;;;;;9.30;1.70;;;;;;;5.08;99.11;101057.97;4993781;28;20521;-66
2023/03/04 06:07:09;;;;;;;9.70;1.20;;;;;;;5.18;98.93;101071.53;4993148;28;20820;-66
2023/03/04 06:09:37;;;;;;;8.23;2.27;;;;;;;5.22;98.83;101067.28;4993351;28;20564;-66
2023/03/04 06:12:04;;;;;;;6.73;1.77;;;;;;;5.19;98.99;101070.47;4993348;28;20919;-66
2023/03/04 06:14:31;;;;;;;6.60;1.40;;;;;;;5.22;99.12;101069.97;4993314;28;20441;-66
2023/03/04 06:16:57;;;;;;;20.87;1.87;;;;;;;5.19;99.31;101065.09;4993067;28;20532;-66
2023/03/04 06:19:24;;;;;;;5.60;1.17;;;;;;;5.21;99.51;101065.63;4993200;28;21009;-67
2023/03/04 06:21:51;;;;;;;8.00;1.73;;;;;;;5.20;100.00;101074.75;4993123;28;21018;-66
2023/03/04 06:24:17;;;;;;;5.57;1.37;;;;;;;5.24;100.00;101069.72;4993372;28;20461;-66
2023/03/04 06:26:45;;;;;;;5.40;1.10;;;;;;;5.22;100.00;101067.28;4993449;28;20539;-67
2023/03/04 06:29:12;;;;;;;13.60;1.53;;;;;;;5.23;100.00;101063.53;4993179;28;20500;-66
2023/03/04 06:31:40;;;;;;;8.10;1.40;;;;;;;5.22;100.00;101056.53;4993185;28;20481;-66
2023/03/04 06:34:07;;;;;;;6.10;1.47;;;;;;;5.25;100.00;101068.63;4992953;28;20935;-67
2023/03/04 06:36:33;;;;;;;9.63;2.53;;;;;;;5.21;100.00;101071.00;4993186;28;20459;-67
2023/03/04 06:39:02;;;;;;;8.20;2.47;;;;;;;5.19;100.00;101065.09;4993580;28;20444;-67
2023/03/04 06:41:28;;;;;;;9.77;1.87;;;;;;;5.19;100.00;101067.78;4996403;28;20455;-67
2023/03/04 06:43:56;;;;;;;9.30;2.20;;;;;;;5.23;100.00;101070.78;4996722;28;20546;-67
2023/03/04 06:46:23;;;;;;;7.90;1.90;;;;;;;5.16;100.00;101068.28;4996367;28;21037;-67
2023/03/04 06:48:50;;;;;;;11.83;2.43;;;;;;;5.21;100.00;101076.38;4996507;28;20536;-67
2023/03/04 06:51:16;;;;;;;9.03;1.60;;;;;;;5.20;100.00;101073.97;4996477;28;20519;-67
2023/03/04 06:53:43;;;;;;;6.63;2.10;;;;;;;5.20;100.00;101073.97;4996532;28;20449;-66
2023/03/04 06:56:11;;;;;;;6.63;1.43;;;;;;;5.26;100.00;101071.06;4996462;28;20453;-66
2023/03/04 06:58:38;;;;;;;19.40;1.33;;;;;;;5.30;100.00;101077.53;4996457;28;20453;-66
2023/03/04 07:01:15;;;;;;;5.93;1.50;;;;;;;5.34;100.00;101082.41;4996015;28;21061;-67
2023/03/04 07:03:43;;;;;;;8.60;1.60;;;;;;;5.40;100.00;101079.53;4996284;28;20452;-67
2023/03/04 07:06:10;;;;;;;7.40;1.37;;;;;;;5.42;100.00;101101.56;4996325;28;20451;-67
2023/03/04 07:08:37;;;;;;;6.27;1.67;;;;;;;5.39;100.00;101077.91;4995934;28;20448;-66
2023/03/04 07:11:04;;;;;;;5.13;1.33;;;;;;;5.31;100.00;101083.72;4995845;28;20491;-65
2023/03/04 07:13:30;;;;;;;5.37;1.13;;;;;;;5.44;100.00;101090.56;4995823;28;20444;-68
2023/03/04 07:15:57;;;;;;;10.90;1.80;;;;;;;5.46;100.00;101091.13;5024027;23;20500;-80
2023/03/04 07:18:25;;;;;;;8.00;1.70;;;;;;;5.46;100.00;101091.94;5019232;28;20542;-78
2023/03/04 07:20:52;;;;;;;5.23;1.07;;;;;;;5.41;100.00;101091.09;5017892;28;20480;-78
2023/03/04 07:23:19;;;;;;;6.67;1.17;;;;;;;5.35;100.00;101089.41;5017875;28;20491;-77
2023/03/04 07:25:46;;;;;;;6.80;1.20;;;;;;;5.35;100.00;101081.34;5030056;22;21059;-69
2023/03/04 07:28:12;;;;;;;6.13;1.27;;;;;;;5.38;100.00;101088.91;5015218;28;20447;-69
2023/03/04 07:30:39;;;;;;;7.10;1.23;;;;;;;5.28;100.00;101092.31;5015479;28;20452;-67
2023/03/04 07:33:05;;;;;;;5.30;1.23;;;;;;;5.30;100.00;101084.78;5015465;28;20484;-68
2023/03/04 07:35:34;;;;;;;5.10;1.13;;;;;;;5.35;100.00;101076.78;5015348;28;20500;-68
2023/03/04 07:38:00;;;;;;;5.20;1.13;;;;;;;5.31;100.00;101083.72;5015362;28;20540;-68
2023/03/04 07:40:27;;;;;;;6.27;1.50;;;;;;;5.29;100.00;101078.63;5015277;28;20880;-67
2023/03/04 07:42:54;;;;;;;5.07;1.30;;;;;;;5.38;100.00;101086.22;5014988;28;20475;-68
2023/03/04 07:45:22;;;;;;;4.93;1.17;;;;;;;5.37;100.00;101084.59;5015244;28;20518;-67
2023/03/04 07:47:49;;;;;;;5.90;1.67;;;;;;;5.41;100.00;101083.84;5015279;28;20546;-68
2023/03/04 07:50:17;;;;;;;4.60;0.90;;;;;;;5.47;100.00;101087.38;5015139;28;20448;-69
2023/03/04 07:52:46;;;;;;;5.17;1.20;;;;;;;5.48;100.00;101072.88;5014631;28;20490;-68
2023/03/04 07:55:14;;;;;;;5.00;1.17;;;;;;;5.44;100.00;101082.50;5014697;28;20491;-69
2023/03/04 07:57:42;;;;;;;9.87;2.03;;;;;;;5.47;100.00;101087.38;5015005;28;20454;-68
2023/03/04 08:00:11;;;;;;;5.50;1.07;;;;;;;5.35;100.00;101081.34;5014616;28;21014;-68
2023/03/04 08:02:38;;;;;;;5.73;1.10;;;;;;;5.31;100.00;101084.56;5014868;28;20450;-67
2023/03/04 08:05:05;;;;;;;6.53;1.40;;;;;;;5.37;100.00;101079.22;5014753;28;20555;-69
2023/03/04 08:07:32;;;;;;;5.37;1.57;;;;;;;5.37;100.00;101076.53;5014751;28;20550;-68
2023/03/04 08:10:00;;;;;;;4.57;0.73;;;;;;;5.41;100.00;101083.84;5014661;28;20444;-67
2023/03/04 08:12:28;;;;;;;6.00;1.23;;;;;;;5.42;100.00;101081.97;5014340;28;20479;-69
2023/03/04 08:14:55;;;;;;;6.20;1.40;;;;;;;5.44;100.00;101072.56;5014259;28;20677;-68
2023/03/04 08:17:21;;;;;;;9.43;1.30;;;;;;;5.44;100.00;101075.25;5014663;28;20443;-69
2023/03/04 08:19:48;;;;;;;4.67;1.00;;;;;;;5.50;100.00;101084.19;5014464;28;20528;-68
2023/03/04 08:22:15;;;;;;;4.83;1.00;;;;;;;5.48;100.00;101072.88;5014388;28;20951;-68
2023/03/04 08:24:41;;;;;;;12.53;1.60;;;;;;;5.55;100.00;101082.34;5014019;28;20575;-69
2023/03/04 08:27:09;;;;;;;6.83;1.60;;;;;;;5.66;100.00;101077.06;5014082;28;20957;-69
2023/03/04 08:29:36;;;;;;;7.93;1.80;;;;;;;5.57;99.01;101069.47;5014384;28;20527;-71
2023/03/04 08:32:03;;;;;;;13.00;1.53;;;;;;;5.67;98.13;101070.66;5014120;28;20546;-68
2023/03/04 08:34:30;;;;;;;5.67;0.83;;;;;;;5.77;98.15;101079.59;5014191;28;20440;-68
2023/03/04 08:36:56;;;;;;;4.70;1.10;;;;;;;5.94;96.71;101070.63;5014273;28;20464;-68
2023/03/04 08:39:23;;;;;;;7.13;1.33;;;;;;;5.97;96.27;101062.00;5014322;28;20440;-69
2023/03/04 08:41:50;;;;;;;7.17;1.27;;;;;;;5.95;97.00;101069.53;5014237;28;20474;-70
2023/03/04 08:44:18;;;;;;;5.83;1.43;;;;;;;6.00;97.70;101074.94;5014156;28;20874;-66
2023/03/04 08:46:44;;;;;;;11.50;1.47;;;;;;;6.12;97.65;101072.88;5013812;28;21006;-67
2023/03/04 08:49:13;;;;;;;4.33;0.77;;;;;;;6.15;97.65;101069.66;5014493;28;20440;-67
2023/03/04 08:51:40;;;;;;;4.93;1.20;;;;;;;6.11;98.38;101063.22;5013964;28;20488;-70
2023/03/04 08:54:06;;;;;;;6.10;1.17;;;;;;;6.14;98.14;101062.66;5013912;28;20480;-70
2023/03/04 08:56:33;;;;;;;7.33;1.50;;;;;;;6.31;97.58;101055.25;5013884;28;20483;-70
2023/03/04 08:59:00;;;;;;;6.10;1.80;;;;;;;6.32;97.28;101061.44;5013625;28;20436;-68
2023/03/04 09:01:28;;;;;;;5.70;1.40;;;;;;;6.32;97.23;101062.22;5013855;28;20458;-70
2023/03/04 09:03:55;;;;;;;7.30;1.23;;;;;;;6.40;96.64;101065.50;5013556;28;20440;-70
2023/03/04 09:06:21;;;;;;;10.37;2.10;;;;;;;6.48;95.80;101057.75;5013504;28;20515;-69
2023/03/04 09:08:48;;;;;;;6.13;1.67;;;;;;;6.50;95.26;101049.41;5013723;28;20900;-69
2023/03/04 09:11:15;;;;;;;8.37;1.63;;;;;;;6.52;94.99;101047.28;5013672;28;20440;-69
2023/03/04 09:13:42;;;;;;;8.27;1.43;;;;;;;6.57;94.44;101053.50;5013777;28;20494;-69
2023/03/04 09:16:10;;;;;;;9.03;1.40;;;;;;;6.59;95.17;101047.84;5013611;28;20468;-68
2023/03/04 09:18:39;;;;;;;7.13;1.47;;;;;;;6.65;92.66;101052.19;5013593;28;20447;-69
2023/03/04 09:21:07;;;;;;;6.97;1.30;;;;;;;6.73;92.31;101059.75;5013725;28;20526;-69
2023/03/04 09:23:33;;;;;;;7.07;2.37;;;;;;;6.60;91.54;101065.63;5013539;28;20481;-69
2023/03/04 09:26:00;;;;;;;7.43;2.10;;;;;;;6.68;91.90;101061.59;5013089;28;20472;-69
2023/03/04 09:28:27;;;;;;;5.27;1.30;;;;;;;6.52;90.41;101063.44;5013146;28;20819;-69
2023/03/04 09:30:53;;;;;;;8.40;1.20;;;;;;;6.47;90.06;101061.53;5013466;28;20444;-68
2023/03/04 09:33:20;;;;;;;13.93;1.27;;;;;;;6.59;89.43;101061.28;5013317;28;20582;-69
2023/03/04 09:35:48;;;;;;;4.60;0.80;;;;;;;6.60;89.75;101062.94;5013061;28;20547;-70
2023/03/04 09:38:15;;;;;;;6.53;0.87;;;;;;;6.63;89.99;101066.97;5013437;28;20861;-69
2023/03/04 09:40:44;;;;;;;8.53;1.30;;;;;;;6.76;88.06;101071.88;5013356;28;20466;-69
2023/03/04 09:43:19;;;;;;;8.37;1.47;;;;;;;6.78;88.80;101073.22;5013272;28;20446;-68
2023/03/04 09:45:50;;;;;;;7.13;1.00;;;;;;;6.77;88.26;101070.78;5013003;28;20464;-69
2023/03/04 09:48:22;;;;;;;4.77;0.90;;;;;;;6.80;87.65;101076.47;5013070;28;20464;-69
2023/03/04 09:51:06;;;;;;;8.00;1.10;;;;;;;6.81;86.74;101072.69;5013295;28;20468;-68
2023/03/04 09:53:40;;;;;;;4.57;1.33;;;;;;;6.83;86.26;101067.06;5013244;28;20474;-68
2023/03/04 09:56:07;;;;;;;5.27;1.10;;;;;;;6.75;85.26;101068.38;5013322;28;20522;-69
2023/03/04 09:58:46;;;;;;;6.20;1.27;;;;;;;6.77;83.29;101065.41;5012887;28;20941;-68
2023/03/04 10:01:20;;;;;;;4.20;0.83;;;;;;;6.76;82.52;101071.88;5012924;28;20432;-69
2023/03/04 10:03:51;;;;;;;4.13;0.70;;;;;;;6.73;82.12;101069.69;5013110;28;20809;-69
2023/03/04 10:06:21;;;;;;;9.03;1.43;;;;;;;6.87;82.09;101064.66;5012680;28;20464;-69
2023/03/04 10:08:54;;;;;;;4.63;1.03;;;;;;;6.79;81.73;101072.16;5012750;28;20540;-69
2023/03/04 10:11:25;;;;;;;11.17;1.83;;;;;;;6.88;81.15;101071.66;5013107;28;20424;-69
2023/03/04 10:14:08;;;;;;;5.73;1.33;;;;;;;6.92;80.73;101070.84;5013390;28;20474;-69
2023/03/04 10:16:39;;;;;;;6.10;0.70;;;;;;;6.96;76.54;101057.69;5016491;28;20470;-69
2023/03/04 10:19:22;;;;;;;6.20;0.90;;;;;;;7.03;75.88;101069.78;5016938;28;20549;-70
2023/03/04 10:21:51;;;;;;;12.13;1.77;;;;;;;6.92;76.17;101076.25;5016429;28;20780;-70
2023/03/04 10:24:21;;;;;;;6.40;1.13;;;;;;;6.97;74.87;101078.94;5016211;28;20829;-69
2023/03/04 10:26:52;;;;;;;6.10;0.90;;;;;;;6.99;75.57;101073.28;5016439;28;20443;-69
2023/03/04 10:29:23;;;;;;;6.67;1.87;;;;;;;7.03;74.60;101077.88;5016366;28;20519;-69
2023/03/04 10:31:50;;;;;;;8.63;1.23;;;;;;;7.11;72.87;101075.75;5016622;28;20431;-69
2023/03/04 10:34:18;;;;;;;5.80;1.30;;;;;;;7.12;72.90;101075.47;5016117;28;21017;-69
2023/03/04 10:36:55;;;;;;;6.97;1.23;;;;;;;7.20;73.98;101071.47;5016719;28;20445;-69
2023/03/04 10:39:26;;;;;;;5.47;1.40;;;;;;;7.22;71.48;101078.22;5016511;28;20420;-69
2023/03/04 10:41:59;;;;;;;6.10;1.23;;;;;;;7.23;71.62;101073.63;5016411;28;20507;-69
2023/03/04 10:44:26;;;;;;;15.80;1.03;;;;;;;7.27;70.06;101075.53;5016039;28;20813;-69
2023/03/04 10:46:55;;;;;;;6.53;0.73;;;;;;;7.14;70.97;101070.66;5016174;28;20482;-69
2023/03/04 10:49:23;;;;;;;4.80;0.80;;;;;;;7.24;71.73;101070.66;5016287;28;20447;-69
2023/03/04 10:51:54;;;;;;;8.43;1.00;;;;;;;7.32;72.15;101074.72;5015942;28;20956;-69
2023/03/04 10:54:26;;;;;;;9.67;1.10;;;;;;;7.37;70.98;101073.94;5016399;28;20432;-69
2023/03/04 10:56:58;;;;;;;9.60;0.90;;;;;;;7.46;70.14;101077.72;5016463;28;20428;-69
2023/03/04 10:59:34;;;;;;;10.03;1.67;;;;;;;7.33;70.11;101074.44;5016288;28;20444;-69
2023/03/04 11:02:02;;;;;;;5.00;0.93;;;;;;;7.27;70.34;101072.03;5016004;28;20446;-69
2023/03/04 11:04:34;;;;;;;9.53;1.77;;;;;;;7.08;71.35;101080.59;5015896;28;20444;-69
2023/03/04 11:07:02;;;;;;;6.77;0.93;;;;;;;7.06;72.66;101074.66;5015893;28;20807;-69
2023/03/04 11:09:30;;;;;;;10.13;0.90;;;;;;;7.02;73.20;101078.97;5015837;28;20795;-69
2023/03/04 11:11:59;;;;;;;5.30;1.17;;;;;;;7.10;72.68;101080.34;5015637;28;20454;-69
2023/03/04 11:14:30;;;;;;;6.80;0.97;;;;;;;7.12;70.60;101085.44;5015650;28;20447;-69
2023/03/04 11:16:59;;;;;;;12.53;1.63;;;;;;;7.17;70.32;101080.91;5015678;28;20436;-69
2023/03/04 11:19:31;;;;;;;5.53;1.20;;;;;;;7.12;69.93;101094.34;5015622;28;20803;-69
2023/03/04 11:22:00;;;;;;;9.03;1.27;;;;;;;7.18;69.03;101089.78;5015315;28;20436;-68
2023/03/04 11:24:29;;;;;;;8.67;1.90;;;;;;;7.20;69.21;101083.03;5015101;28;20627;-68
2023/03/04 11:27:03;;;;;;;6.53;1.43;;;;;;;7.17;69.34;101088.97;5014386;28;20437;-68
2023/03/04 11:29:33;;;;;;;5.50;1.33;;;;;;;7.17;68.31;101074.69;5015457;28;20428;-67